Terminal Aerodrome Forecast
Issued by NWS Sioux Falls, SD

Home | Current Version | Previous Version | Graphics & Text | Print | Product List | Glossary On
Versions: 1 2 3 4 5 6 7 8 9 10 11 12 13 14 15 16 17 18 19 20
000
FTUS43 KFSD 212320
TAFHON
TAF
KHON 212320Z 2200/2224 05010KT P6SM BKN100
     FM220400 10010KT P6SM BKN100
     FM220900 13011KT P6SM OVC060
     FM221200 14012KT 6SM -SN OVC050
     FM221400 14014G21KT 5SM -SN OVC035
     FM221600 15017G24KT P6SM -SN OVC025
     FM221800 15019G27KT P6SM BKN035=

USA.gov is the U.S. government's official web portal to all federal, state and local government web resources and services.